Time;durP1;ratioP1;P1;durP2;ratioP2;P2;SDS_P1;SDS_P2;PMS_P1;PMS_P2;Temp;Humidity;BMP_temperature;BMP_pressure;BME280_temperature;BME280_humidity;BME280_pressure;Samples;Min_cycle;Max_cycle;Signal;HPM_P1;HPM_P2
2023/11/21 00:02:23;;;;;;;6.20;4.30;;;;;;;8.60;100.00;99453.98;129502;1265;114751;-59
2023/11/21 00:22:35;;;;;;;10.30;5.70;;;;;;;8.54;100.00;99467.48;129428;1273;114636;-58
2023/11/21 00:25:37;;;;;;;10.80;5.30;;;;;;;8.53;100.00;99470.55;129672;1282;114824;-58
2023/11/21 00:28:39;;;;;;;12.00;5.50;;;;;;;8.52;100.00;99473.79;129468;1282;114646;-58
2023/11/21 00:31:42;;;;;;;11.00;5.10;;;;;;;8.51;100.00;99476.51;129567;1265;114792;-58
2023/11/21 00:34:44;;;;;;;13.10;4.50;;;;;;;8.50;100.00;99477.27;129280;1282;128070;-58
2023/11/21 00:37:47;;;;;;;6.90;3.80;;;;;;;8.48;100.00;99479.15;129437;1279;115161;-58
2023/11/21 00:40:49;;;;;;;9.80;4.80;;;;;;;8.45;100.00;99480.16;129500;1265;114801;-58
2023/11/21 00:43:51;;;;;;;8.80;4.40;;;;;;;8.44;100.00;99479.36;129550;1265;114712;-58
2023/11/21 00:46:54;;;;;;;8.10;4.20;;;;;;;8.43;100.00;99483.52;129504;1273;114742;-58
2023/11/21 00:49:59;;;;;;;10.10;4.20;;;;;;;8.42;100.00;99480.16;129379;1282;115491;-58
2023/11/21 00:53:02;;;;;;;8.80;4.30;;;;;;;8.42;100.00;99481.99;129522;1283;127937;-58
2023/11/21 00:56:05;;;;;;;8.50;5.00;;;;;;;8.41;100.00;99481.33;129556;1278;114744;-59
2023/11/21 00:59:06;;;;;;;13.50;4.30;;;;;;;8.39;100.00;99480.50;129537;1265;114733;-59
2023/11/21 01:02:10;;;;;;;7.70;4.00;;;;;;;8.39;100.00;99479.96;129347;1267;114735;-59
2023/11/21 01:05:13;;;;;;;9.40;4.10;;;;;;;8.39;100.00;99482.33;129470;1276;114717;-60
2023/11/21 01:08:15;;;;;;;11.50;4.80;;;;;;;8.37;100.00;99479.90;129415;1283;114706;-57
2023/11/21 01:11:17;;;;;;;12.20;4.40;;;;;;;8.38;100.00;99483.77;129274;1271;114881;-58
2023/11/21 01:14:19;;;;;;;13.10;4.80;;;;;;;8.37;100.00;99480.61;129454;1264;114796;-58
2023/11/21 01:17:22;;;;;;;6.40;4.30;;;;;;;8.37;100.00;99482.38;129345;1271;115239;-58
2023/11/21 01:20:24;;;;;;;8.50;5.00;;;;;;;8.35;100.00;99483.36;129415;1263;114798;-58
2023/11/21 01:23:27;;;;;;;9.30;4.70;;;;;;;8.33;100.00;99485.61;129134;1274;114959;-58
2023/11/21 01:26:29;;;;;;;10.20;5.10;;;;;;;8.33;100.00;99487.05;129497;1264;114793;-59
2023/11/21 01:29:31;;;;;;;13.40;4.70;;;;;;;8.32;100.00;99488.17;129177;1265;115878;-59
2023/11/21 01:32:33;;;;;;;7.20;4.40;;;;;;;8.33;100.00;99490.83;129356;1264;114768;-58
2023/11/21 01:35:36;;;;;;;9.20;4.80;;;;;;;8.32;100.00;99493.70;129422;1266;114855;-58
2023/11/21 01:38:38;;;;;;;10.40;4.90;;;;;;;8.31;100.00;99491.41;129463;1263;114740;-58
2023/11/21 01:41:40;;;;;;;9.60;4.40;;;;;;;8.31;100.00;99493.41;129263;1282;114946;-58
2023/11/21 01:44:42;;;;;;;11.00;5.20;;;;;;;8.30;100.00;99491.84;129396;1263;114730;-58
2023/11/21 01:47:45;;;;;;;11.40;4.70;;;;;;;8.30;100.00;99490.77;129468;1261;114695;-59
2023/11/21 01:50:48;;;;;;;7.60;4.50;;;;;;;8.30;100.00;99492.36;129279;1273;114801;-59
2023/11/21 01:53:50;;;;;;;8.80;4.30;;;;;;;8.30;100.00;99493.44;129296;1264;115087;-58
2023/11/21 01:56:52;;;;;;;9.40;4.50;;;;;;;8.30;100.00;99493.10;129329;1264;114720;-59
2023/11/21 01:59:54;;;;;;;8.40;4.20;;;;;;;8.28;100.00;99494.07;129566;1263;114823;-58
2023/11/21 02:02:59;;;;;;;10.70;4.40;;;;;;;8.27;100.00;99491.50;129517;1266;114828;-58
2023/11/21 02:06:01;;;;;;;10.60;4.80;;;;;;;8.26;100.00;99499.01;129378;1267;115081;-59
2023/11/21 02:09:04;;;;;;;11.60;4.40;;;;;;;8.26;100.00;99496.18;129530;1265;114786;-59
2023/11/21 02:12:08;;;;;;;9.90;4.10;;;;;;;8.25;100.00;99497.65;129456;1273;115153;-59
2023/11/21 02:15:14;;;;;;;8.90;4.00;;;;;;;8.23;100.00;99501.09;129466;1264;114792;-59
2023/11/21 02:18:17;;;;;;;9.50;4.10;;;;;;;8.23;100.00;99499.36;129497;1264;114783;-58
2023/11/21 02:21:19;;;;;;;7.60;4.30;;;;;;;8.21;100.00;99500.86;129536;1264;114798;-59
2023/11/21 02:24:22;;;;;;;6.10;4.20;;;;;;;8.20;100.00;99504.26;129500;1271;114728;-59
2023/11/21 02:27:24;;;;;;;7.20;4.30;;;;;;;8.19;100.00;99503.95;129559;1273;115146;-59
2023/11/21 02:30:27;;;;;;;7.70;4.00;;;;;;;8.18;100.00;99501.34;129489;1282;129012;-60
2023/11/21 02:33:33;;;;;;;9.50;3.90;;;;;;;8.17;100.00;99501.21;129542;1264;114666;-60
2023/11/21 02:36:35;;;;;;;7.30;4.10;;;;;;;8.17;100.00;99500.90;129341;1267;114773;-60
2023/11/21 02:39:37;;;;;;;8.00;4.20;;;;;;;8.16;100.00;99502.89;129452;1263;114731;-59
2023/11/21 02:42:40;;;;;;;8.20;3.90;;;;;;;8.15;100.00;99503.46;129491;1261;114747;-59
2023/11/21 02:45:42;;;;;;;7.10;3.60;;;;;;;8.15;100.00;99503.84;129384;1282;114837;-59
2023/11/21 02:48:44;;;;;;;10.20;3.60;;;;;;;8.15;100.00;99505.79;129376;1282;114765;-59
2023/11/21 02:51:46;;;;;;;8.00;3.90;;;;;;;8.15;100.00;99509.33;129498;1260;114748;-58
2023/11/21 02:54:49;;;;;;;7.40;3.70;;;;;;;8.15;100.00;99504.19;129445;1260;115375;-59
2023/11/21 02:57:51;;;;;;;8.50;3.70;;;;;;;8.15;100.00;99510.58;129539;1263;114804;-59
2023/11/21 03:00:54;;;;;;;6.20;4.30;;;;;;;8.15;100.00;99511.46;129432;1279;114751;-58
2023/11/21 03:03:57;;;;;;;7.30;4.10;;;;;;;8.15;100.00;99507.41;129502;1260;114771;-57
2023/11/21 03:06:59;;;;;;;11.20;4.60;;;;;;;8.15;100.00;99505.98;129442;1276;114673;-58
2023/11/21 03:10:01;;;;;;;8.90;4.80;;;;;;;8.14;100.00;99510.46;129452;1276;114840;-58
2023/11/21 03:13:04;;;;;;;7.70;4.70;;;;;;;8.13;100.00;99513.88;129561;1276;114722;-61
2023/11/21 03:16:10;;;;;;;10.00;5.30;;;;;;;8.13;100.00;99514.80;129192;1282;115364;-58
2023/11/21 03:19:12;;;;;;;8.40;5.30;;;;;;;8.12;100.00;99515.71;129306;1263;115014;-58
2023/11/21 03:22:15;;;;;;;8.50;5.30;;;;;;;8.12;100.00;99511.30;129567;1264;114824;-59
2023/11/21 03:25:17;;;;;;;11.00;6.10;;;;;;;8.11;100.00;99512.22;129535;1260;115282;-58
2023/11/21 03:28:19;;;;;;;11.20;6.10;;;;;;;8.11;100.00;99512.60;129563;1263;114761;-59
2023/11/21 03:31:21;;;;;;;9.60;5.60;;;;;;;8.10;100.00;99514.06;129058;1282;128563;-59
2023/11/21 03:34:28;;;;;;;11.60;6.30;;;;;;;8.10;100.00;99515.84;129384;1264;114715;-59
2023/11/21 03:37:30;;;;;;;12.10;6.50;;;;;;;8.09;100.00;99519.45;129129;1267;114802;-58
2023/11/21 03:40:32;;;;;;;10.70;6.80;;;;;;;8.09;100.00;99521.95;129443;1272;114753;-58
2023/11/21 03:43:34;;;;;;;15.20;7.30;;;;;;;8.09;100.00;99525.34;129497;1263;114721;-58
2023/11/21 03:46:37;;;;;;;14.40;7.30;;;;;;;8.08;100.00;99525.73;129369;1264;115071;-59
2023/11/21 03:49:39;;;;;;;17.10;7.50;;;;;;;8.09;100.00;99525.70;129401;1263;114742;-59
2023/11/21 03:52:41;;;;;;;15.50;7.80;;;;;;;8.08;100.00;99523.79;129394;1264;114843;-60
2023/11/21 03:55:43;;;;;;;12.50;7.50;;;;;;;8.08;100.00;99526.09;129431;1261;115328;-60
2023/11/21 03:58:45;;;;;;;15.30;8.30;;;;;;;8.08;100.00;99528.23;129236;1259;114969;-59
2023/11/21 04:01:47;;;;;;;15.00;7.70;;;;;;;8.08;100.00;99531.23;129355;1263;115245;-59
2023/11/21 04:04:49;;;;;;;14.60;7.30;;;;;;;8.07;100.00;99530.59;129370;1264;114745;-59
2023/11/21 04:07:51;;;;;;;11.50;7.50;;;;;;;8.06;100.00;99535.04;129280;1264;115219;-60
2023/11/21 04:10:53;;;;;;;14.00;8.00;;;;;;;8.07;100.00;99532.70;129215;1264;114781;-59
2023/11/21 04:13:55;;;;;;;15.60;8.30;;;;;;;8.07;100.00;99533.41;131250;1260;114655;-58
2023/11/21 04:16:57;;;;;;;14.60;7.80;;;;;;;8.08;100.00;99531.77;129069;1267;115366;-59
2023/11/21 04:19:59;;;;;;;13.10;6.70;;;;;;;8.09;100.00;99532.81;129310;1264;114718;-59
2023/11/21 04:23:01;;;;;;;9.80;6.80;;;;;;;8.09;100.00;99535.27;129347;1264;114793;-58
2023/11/21 04:26:03;;;;;;;13.90;6.90;;;;;;;8.10;100.00;99539.53;129242;1267;114902;-59
2023/11/21 04:29:05;;;;;;;12.80;7.20;;;;;;;8.09;100.00;99543.45;129371;1273;114688;-59
2023/11/21 04:32:07;;;;;;;11.30;7.70;;;;;;;8.10;100.00;99546.09;129548;1264;114832;-59
2023/11/21 04:35:10;;;;;;;12.80;7.70;;;;;;;8.10;100.00;99547.16;129419;1282;128954;-59
2023/11/21 04:38:11;;;;;;;10.80;6.80;;;;;;;8.09;100.00;99549.50;129372;1261;114846;-61
2023/11/21 04:41:13;;;;;;;7.20;5.90;;;;;;;8.09;100.00;99552.02;129410;1261;114717;-60
2023/11/21 04:44:16;;;;;;;13.70;6.60;;;;;;;8.09;100.00;99551.64;129386;1260;114810;-60
2023/11/21 04:47:19;;;;;;;10.90;6.40;;;;;;;8.08;100.00;99554.16;129473;1264;115151;-60
2023/11/21 04:50:22;;;;;;;12.30;6.80;;;;;;;8.07;100.00;99555.81;129581;1282;114823;-61
2023/11/21 04:53:24;;;;;;;11.40;6.10;;;;;;;8.06;100.00;99560.11;129413;1282;114764;-60
2023/11/21 04:56:26;;;;;;;10.80;6.80;;;;;;;8.05;100.00;99561.77;129488;1282;114818;-60
2023/11/21 04:59:28;;;;;;;12.90;6.30;;;;;;;8.05;100.00;99569.42;129395;1270;115180;-59
2023/11/21 05:02:31;;;;;;;9.80;6.00;;;;;;;8.05;100.00;99569.06;129379;1260;115257;-58
2023/11/21 05:05:36;;;;;;;10.20;5.70;;;;;;;8.06;100.00;99574.55;129476;1259;114804;-59
2023/11/21 05:08:39;;;;;;;10.40;5.90;;;;;;;8.04;100.00;99574.45;129316;1277;114699;-60
2023/11/21 05:11:41;;;;;;;10.90;5.40;;;;;;;8.03;100.00;99574.67;129379;1275;114734;-59
2023/11/21 05:14:43;;;;;;;12.90;6.00;;;;;;;8.03;100.00;99579.13;129453;1263;114845;-58
2023/11/21 05:17:45;;;;;;;9.80;5.30;;;;;;;8.03;100.00;99581.64;129490;1260;114978;-59
2023/11/21 05:20:47;;;;;;;10.30;5.30;;;;;;;8.01;100.00;99579.39;129228;1266;114950;-59
2023/11/21 05:23:49;;;;;;;9.70;5.00;;;;;;;8.01;100.00;99580.86;129344;1264;114781;-60
2023/11/21 05:26:51;;;;;;;12.60;5.80;;;;;;;8.00;100.00;99583.92;129435;1264;114795;-59
2023/11/21 05:29:53;;;;;;;7.90;5.10;;;;;;;8.00;100.00;99586.59;129087;1265;115008;-59
2023/11/21 05:32:55;;;;;;;11.10;5.00;;;;;;;8.01;100.00;99583.16;129368;1259;115129;-60
2023/11/21 05:35:57;;;;;;;8.40;4.90;;;;;;;7.99;100.00;99582.91;129480;1260;114756;-59
2023/11/21 05:38:59;;;;;;;7.70;5.40;;;;;;;7.99;100.00;99583.61;129399;1282;115349;-59
2023/11/21 05:42:01;;;;;;;9.50;5.50;;;;;;;7.97;100.00;99587.23;129478;1263;115407;-60
2023/11/21 05:45:09;;;;;;;11.00;6.60;;;;;;;7.96;100.00;99589.61;129634;1279;114786;-59
2023/11/21 05:48:12;;;;;;;9.70;6.70;;;;;;;7.95;100.00;99593.77;129348;1261;114916;-60
2023/11/21 05:51:14;;;;;;;9.30;6.50;;;;;;;7.95;100.00;99597.52;129403;1273;114924;-59
2023/11/21 05:54:16;;;;;;;10.00;6.50;;;;;;;7.95;100.00;99594.48;129372;1264;114706;-60
2023/11/21 05:57:18;;;;;;;10.80;6.90;;;;;;;7.94;100.00;99595.59;129514;1282;115091;-59
2023/11/21 06:00:25;;;;;;;11.50;6.10;;;;;;;7.93;100.00;99597.61;129419;1282;115247;-59
2023/11/21 06:03:27;;;;;;;11.10;7.00;;;;;;;7.93;100.00;99597.09;129434;1260;114826;-60
2023/11/21 06:06:29;;;;;;;9.30;6.50;;;;;;;7.93;100.00;99602.95;129451;1261;115045;-60
2023/11/21 06:09:31;;;;;;;11.20;6.90;;;;;;;7.91;100.00;99606.90;129519;1267;114727;-61
2023/11/21 06:12:35;;;;;;;12.40;8.00;;;;;;;7.91;100.00;99612.27;129246;1264;114825;-59
2023/11/21 06:15:37;;;;;;;10.10;7.00;;;;;;;7.90;100.00;99611.45;129418;1282;127952;-59
2023/11/21 06:18:43;;;;;;;10.40;7.60;;;;;;;7.90;100.00;99618.92;129318;1280;114858;-60
2023/11/21 06:21:48;;;;;;;16.00;8.10;;;;;;;7.89;100.00;99619.66;129372;1263;114838;-59
2023/11/21 06:24:50;;;;;;;11.60;7.50;;;;;;;7.90;100.00;99626.91;129072;1261;115097;-61
2023/11/21 06:27:53;;;;;;;10.70;7.80;;;;;;;7.90;100.00;99629.92;129317;1260;114787;-59
2023/11/21 06:30:55;;;;;;;10.50;7.00;;;;;;;7.91;100.00;99634.84;129405;1264;114734;-60
2023/11/21 06:33:59;;;;;;;10.80;7.40;;;;;;;7.93;100.00;99638.71;129383;1265;115058;-60
2023/11/21 06:37:02;;;;;;;13.50;8.00;;;;;;;7.92;100.00;99642.63;129333;1261;114752;-60
2023/11/21 06:40:05;;;;;;;10.60;7.90;;;;;;;7.92;100.00;99646.73;129316;1264;115101;-59
2023/11/21 06:43:07;;;;;;;14.80;7.80;;;;;;;7.93;100.00;99644.55;129342;1261;114735;-59
2023/11/21 06:46:11;;;;;;;10.40;7.50;;;;;;;7.94;100.00;99646.10;129449;1263;114725;-60
2023/11/21 06:49:13;;;;;;;11.60;7.60;;;;;;;7.94;100.00;99653.04;129183;1264;115150;-60
2023/11/21 06:52:15;;;;;;;14.80;8.00;;;;;;;7.95;100.00;99656.55;129405;1261;114733;-59
2023/11/21 06:55:18;;;;;;;15.40;8.30;;;;;;;7.95;100.00;99659.54;129469;1259;115398;-59
2023/11/21 06:58:20;;;;;;;12.30;7.90;;;;;;;7.97;100.00;99658.91;129464;1282;115183;-59
2023/11/21 07:01:22;;;;;;;15.80;8.60;;;;;;;8.00;100.00;99659.66;129360;1265;114726;-62
2023/11/21 07:04:25;;;;;;;11.90;8.60;;;;;;;8.02;100.00;99655.29;129565;1260;114714;-60
2023/11/21 07:07:28;;;;;;;13.40;7.80;;;;;;;8.04;100.00;99658.93;129492;1261;114804;-59
2023/11/21 07:10:30;;;;;;;15.60;8.00;;;;;;;8.05;100.00;99662.62;129391;1264;114737;-60
2023/11/21 07:13:32;;;;;;;13.70;8.10;;;;;;;8.06;100.00;99664.70;129446;1259;115331;-59
2023/11/21 07:16:37;;;;;;;13.10;7.60;;;;;;;8.06;100.00;99665.95;129424;1282;128784;-59
2023/11/21 07:19:42;;;;;;;15.40;8.70;;;;;;;8.08;100.00;99667.29;129416;1262;114769;-60
2023/11/21 07:22:45;;;;;;;15.00;8.20;;;;;;;8.10;100.00;99669.18;129365;1263;114736;-60
2023/11/21 07:25:47;;;;;;;13.00;8.20;;;;;;;8.11;100.00;99673.73;129443;1259;114805;-60
2023/11/21 07:28:49;;;;;;;14.10;8.10;;;;;;;8.13;100.00;99676.98;129469;1282;114740;-59
2023/11/21 07:31:52;;;;;;;12.90;7.70;;;;;;;8.13;100.00;99670.76;129385;1263;114803;-61
2023/11/21 07:34:57;;;;;;;15.20;8.40;;;;;;;8.15;100.00;99676.35;129368;1282;128119;-62
2023/11/21 07:37:59;;;;;;;14.20;8.90;;;;;;;8.17;100.00;99679.46;129340;1282;116490;-61
2023/11/21 07:41:01;;;;;;;12.10;8.00;;;;;;;8.20;100.00;99683.75;129413;1263;115212;-60
2023/11/21 07:44:03;;;;;;;13.30;7.90;;;;;;;8.24;100.00;99686.26;129444;1259;114748;-60
2023/11/21 07:47:05;;;;;;;13.60;7.30;;;;;;;8.26;100.00;99687.91;129239;1264;114791;-59
2023/11/21 07:50:08;;;;;;;13.20;7.40;;;;;;;8.29;100.00;99693.46;129415;1263;114735;-59
2023/11/21 07:53:11;;;;;;;13.20;8.10;;;;;;;8.32;100.00;99687.46;129429;1261;114783;-60
2023/11/21 07:56:12;;;;;;;11.60;8.00;;;;;;;8.36;100.00;99689.52;129520;1263;114693;-59
2023/11/21 07:59:15;;;;;;;12.70;8.50;;;;;;;8.40;100.00;99690.75;129362;1259;116328;-60
2023/11/21 08:02:17;;;;;;;12.50;7.40;;;;;;;8.44;100.00;99694.65;129485;1264;114810;-60
2023/11/21 08:05:19;;;;;;;13.30;7.80;;;;;;;8.48;100.00;99691.30;129589;1263;114778;-62
2023/11/21 08:08:21;;;;;;;11.30;7.30;;;;;;;8.51;100.00;99697.90;129559;1265;114751;-62
2023/11/21 08:11:24;;;;;;;16.20;8.60;;;;;;;8.55;100.00;99701.61;129422;1264;114729;-64
2023/11/21 08:14:28;;;;;;;16.00;9.80;;;;;;;8.60;100.00;99705.46;129323;1259;127552;-61
2023/11/21 08:17:32;;;;;;;17.60;12.70;;;;;;;8.62;100.00;99701.81;129282;1261;115210;-62
2023/11/21 08:20:38;;;;;;;23.70;17.70;;;;;;;8.64;100.00;99704.19;129349;1259;114741;-62
2023/11/21 08:23:40;;;;;;;22.00;14.60;;;;;;;8.66;100.00;99703.03;129486;1264;114776;-61
2023/11/21 08:26:43;;;;;;;15.40;10.00;;;;;;;8.70;100.00;99703.37;129448;1260;114705;-61
2023/11/21 08:29:45;;;;;;;12.20;9.00;;;;;;;8.73;100.00;99707.30;129577;1260;114775;-63
2023/11/21 08:32:47;;;;;;;14.90;10.00;;;;;;;8.78;100.00;99712.91;129470;1282;128889;-61
2023/11/21 08:35:50;;;;;;;15.60;10.40;;;;;;;8.85;100.00;99717.55;129371;1265;114822;-61
2023/11/21 08:38:52;;;;;;;11.80;8.50;;;;;;;8.93;100.00;99716.59;129480;1260;115038;-64
2023/11/21 08:41:54;;;;;;;14.20;10.90;;;;;;;9.00;100.00;99714.83;129227;1270;114820;-61
2023/11/21 08:44:57;;;;;;;20.30;12.90;;;;;;;9.08;100.00;99719.01;129400;1282;114813;-60
2023/11/21 08:48:03;;;;;;;25.50;10.90;;;;;;;9.19;100.00;99718.98;129515;1265;115224;-61
2023/11/21 08:51:05;;;;;;;14.80;9.80;;;;;;;9.32;100.00;99712.93;129515;1259;128587;-61
2023/11/21 08:54:08;;;;;;;11.80;8.80;;;;;;;9.46;100.00;99715.25;129493;1282;115192;-62
2023/11/21 08:57:10;;;;;;;12.40;8.10;;;;;;;9.58;100.00;99718.31;127040;1263;3403132;-60
2023/11/21 09:00:15;;;;;;;13.30;7.80;;;;;;;9.71;100.00;99715.10;129387;1259;115178;-63
2023/11/21 09:03:18;;;;;;;11.50;7.50;;;;;;;9.84;100.00;99711.54;129276;1265;114890;-64
2023/11/21 09:06:20;;;;;;;11.10;7.50;;;;;;;9.95;100.00;99712.34;129388;1265;114901;-64
2023/11/21 09:09:24;;;;;;;13.60;10.20;;;;;;;10.07;100.00;99709.90;129452;1259;114725;-61
2023/11/21 09:12:26;;;;;;;11.90;7.00;;;;;;;10.17;100.00;99717.02;129273;1260;128350;-60
2023/11/21 09:15:29;;;;;;;17.90;9.90;;;;;;;10.22;100.00;99716.70;129616;1259;114834;-60
2023/11/21 09:18:32;;;;;;;16.20;7.00;;;;;;;10.25;100.00;99719.75;129541;1263;114894;-62
2023/11/21 09:21:34;;;;;;;13.60;8.50;;;;;;;10.27;100.00;99722.69;129462;1282;114827;-60
2023/11/21 09:24:37;;;;;;;14.30;7.80;;;;;;;10.27;100.00;99719.61;129529;1264;114834;-63
2023/11/21 09:27:39;;;;;;;11.80;7.10;;;;;;;10.29;100.00;99724.54;129360;1259;114803;-60
2023/11/21 09:30:42;;;;;;;9.30;6.90;;;;;;;10.30;100.00;99724.98;129390;1265;114898;-60
2023/11/21 09:33:44;;;;;;;10.90;6.60;;;;;;;10.31;100.00;99726.34;129417;1259;115659;-60
2023/11/21 09:36:46;;;;;;;9.30;6.60;;;;;;;10.31;100.00;99731.73;129328;1270;115635;-60
2023/11/21 09:39:49;;;;;;;8.40;6.10;;;;;;;10.31;100.00;99729.21;129533;1259;114770;-59
2023/11/21 09:42:59;;;;;;;8.20;6.00;;;;;;;10.28;100.00;99732.80;129521;1264;114894;-60
2023/11/21 09:46:02;;;;;;;9.40;6.20;;;;;;;10.23;100.00;99733.27;129304;1265;114784;-59
2023/11/21 09:49:05;;;;;;;9.50;5.90;;;;;;;10.19;100.00;99733.83;129462;1265;114713;-59
2023/11/21 09:52:09;;;;;;;9.50;6.30;;;;;;;10.16;100.00;99737.71;129436;1282;114834;-59
2023/11/21 09:55:15;;;;;;;8.60;5.90;;;;;;;10.14;100.00;99739.09;129517;1264;114953;-59
2023/11/21 09:58:19;;;;;;;9.70;5.40;;;;;;;10.10;100.00;99741.33;129274;1268;114842;-60
2023/11/21 10:01:21;;;;;;;10.80;6.60;;;;;;;10.06;100.00;99742.59;129294;1265;114890;-60
2023/11/21 10:04:24;;;;;;;20.50;15.50;;;;;;;10.00;100.00;99745.79;129529;1276;114761;-60
2023/11/21 10:07:26;;;;;;;21.20;14.20;;;;;;;9.82;99.97;99748.00;129435;1265;114819;-60
2023/11/21 10:10:30;;;;;;;22.50;16.30;;;;;;;9.67;99.98;99752.08;129489;1264;114710;-59
2023/11/21 10:13:34;;;;;;;24.50;16.20;;;;;;;9.56;100.00;99752.80;129525;1273;115152;-60
2023/11/21 10:16:39;;;;;;;26.60;17.20;;;;;;;9.47;99.97;99755.80;129504;1282;114761;-60
2023/11/21 10:19:41;;;;;;;30.10;19.40;;;;;;;9.33;99.84;99760.80;129307;1260;129180;-60
2023/11/21 10:22:43;;;;;;;27.80;17.40;;;;;;;9.20;99.93;99763.98;129555;1258;114749;-62
2023/11/21 10:25:45;;;;;;;25.70;17.40;;;;;;;9.11;99.93;99768.04;129420;1264;114808;-59
2023/11/21 10:28:58;;;;;;;30.90;20.40;;;;;;;9.06;100.00;99769.19;129446;1280;114641;-59
2023/11/21 10:32:00;;;;;;;28.30;17.60;;;;;;;9.03;100.00;99769.72;129533;1263;114821;-59
2023/11/21 10:35:06;;;;;;;28.70;18.70;;;;;;;8.95;99.93;99770.30;129325;1279;114828;-61
2023/11/21 10:38:13;;;;;;;31.60;19.50;;;;;;;8.88;100.00;99776.51;129205;1282;128372;-58
2023/11/21 10:41:15;;;;;;;30.90;21.60;;;;;;;8.80;99.94;99782.95;129346;1260;115233;-59
2023/11/21 10:44:22;;;;;;;36.20;21.50;;;;;;;8.71;99.69;99783.80;129432;1264;115878;-59
2023/11/21 10:47:26;;;;;;;30.30;21.20;;;;;;;8.58;99.19;99786.34;129407;1282;114957;-60
2023/11/21 10:50:28;;;;;;;32.80;22.00;;;;;;;8.43;98.92;99788.33;129525;1282;115149;-62
2023/11/21 10:53:30;;;;;;;29.20;20.80;;;;;;;8.31;99.12;99788.02;129403;1260;114794;-59
2023/11/21 10:56:35;;;;;;;31.40;21.80;;;;;;;8.24;99.01;99792.81;129420;1263;114736;-59
2023/11/21 10:59:38;;;;;;;36.70;23.80;;;;;;;8.15;99.33;99797.13;129428;1260;114743;-60
2023/11/21 11:02:40;;;;;;;36.00;23.00;;;;;;;8.09;99.32;99797.41;129502;1259;114726;-59
2023/11/21 11:05:51;;;;;;;34.10;22.50;;;;;;;8.07;99.17;99806.77;129486;1264;114811;-59
2023/11/21 11:08:53;;;;;;;34.50;22.90;;;;;;;8.07;99.49;99805.34;129364;1259;128626;-59
2023/11/21 11:11:55;;;;;;;32.40;21.90;;;;;;;8.05;99.22;99800.45;129524;1282;114803;-59
2023/11/21 11:14:58;;;;;;;32.40;22.60;;;;;;;7.99;98.89;99805.20;129447;1260;114726;-58
2023/11/21 11:18:01;;;;;;;42.60;24.40;;;;;;;7.94;98.92;99807.56;129521;1265;114789;-60
2023/11/21 11:21:32;;;;;;;36.10;23.60;;;;;;;7.86;98.36;99807.00;129359;1259;114793;-59
2023/11/21 11:25:11;;;;;;;31.20;20.20;;;;;;;7.73;98.29;99807.44;129139;1265;114840;-60
2023/11/21 11:28:21;;;;;;;31.70;21.50;;;;;;;7.60;98.31;99817.44;129343;1259;127895;-59
2023/11/21 11:31:47;;;;;;;39.30;24.00;;;;;;;7.52;98.32;99819.05;129258;1267;114659;-58
2023/11/21 11:35:41;;;;;;;33.80;21.30;;;;;;;7.42;98.22;99813.07;129528;1264;114721;-59
2023/11/21 11:38:49;;;;;;;35.10;22.10;;;;;;;7.31;97.77;99822.45;129043;1268;114927;-60
2023/11/21 11:41:52;;;;;;;35.20;21.90;;;;;;;7.26;98.45;99822.66;129003;1270;114967;-60
2023/11/21 11:44:57;;;;;;;32.10;20.60;;;;;;;7.23;98.34;99834.54;129019;1270;114808;-61
2023/11/21 11:48:00;;;;;;;37.10;21.20;;;;;;;7.14;97.89;99835.23;128934;1278;115279;-59
2023/11/21 11:51:04;;;;;;;25.50;17.00;;;;;;;7.05;97.39;99841.14;128950;1270;114979;-60
2023/11/21 11:54:06;;;;;;;29.70;20.20;;;;;;;6.89;96.65;99842.54;128795;1268;115191;-60
2023/11/21 11:57:10;;;;;;;35.40;22.20;;;;;;;6.74;96.56;99844.37;128846;1268;114823;-60
2023/11/21 12:00:15;;;;;;;30.90;21.10;;;;;;;6.63;96.92;99847.65;128809;1268;114900;-60
2023/11/21 12:03:18;;;;;;;30.70;20.40;;;;;;;6.57;97.01;99850.39;128550;1268;116698;-61
2023/11/21 12:06:33;;;;;;;32.20;19.70;;;;;;;6.53;97.25;99850.73;128798;1270;115163;-60
2023/11/21 12:09:37;;;;;;;30.20;19.40;;;;;;;6.47;97.27;99862.83;128679;1286;114753;-59
2023/11/21 12:12:42;;;;;;;31.50;19.70;;;;;;;6.43;97.45;99863.21;128593;1276;114812;-58
2023/11/21 12:15:45;;;;;;;28.30;17.10;;;;;;;6.37;97.09;99866.08;129337;1283;128827;-59
2023/11/21 12:18:48;;;;;;;26.50;18.00;;;;;;;6.26;96.38;99869.00;129425;1265;114664;-59
2023/11/21 12:21:52;;;;;;;25.10;17.70;;;;;;;6.13;96.34;99865.23;129544;1262;114738;-59
2023/11/21 12:24:54;;;;;;;24.50;16.00;;;;;;;6.00;96.36;99871.02;129528;1262;114877;-59
2023/11/21 12:27:57;;;;;;;19.70;14.80;;;;;;;5.91;96.62;99873.30;129434;1282;114702;-61
2023/11/21 12:31:00;;;;;;;23.30;15.60;;;;;;;5.83;96.55;99877.13;129449;1282;114817;-60
2023/11/21 12:34:02;;;;;;;20.30;14.80;;;;;;;5.74;96.38;99883.30;129489;1260;114818;-59
2023/11/21 12:37:04;;;;;;;20.80;13.70;;;;;;;5.63;96.45;99888.83;129256;1264;115153;-59
2023/11/21 12:40:08;;;;;;;20.90;14.10;;;;;;;5.53;96.31;99892.18;129356;1263;114783;-59
2023/11/21 12:43:10;;;;;;;19.30;13.30;;;;;;;5.43;96.32;99898.39;129503;1263;115120;-59
2023/11/21 12:46:17;;;;;;;12.90;14.10;;;;;;;5.31;95.86;99905.19;129430;1264;114753;-59
2023/11/21 12:49:19;;;;;;;16.30;11.30;;;;;;;5.16;95.70;99910.63;129469;1282;128866;-59
2023/11/21 12:52:21;;;;;;;19.10;13.40;;;;;;;5.04;95.77;99919.36;129488;1259;115206;-58
2023/11/21 12:55:23;;;;;;;22.20;12.20;;;;;;;4.93;95.79;99924.31;129372;1264;114849;-60
2023/11/21 12:58:26;;;;;;;19.60;13.40;;;;;;;4.82;95.80;99924.30;129432;1261;114742;-59
2023/11/21 13:01:29;;;;;;;21.80;15.70;;;;;;;4.75;96.33;99931.60;129480;1260;115180;-59
2023/11/21 13:04:34;;;;;;;24.30;18.10;;;;;;;4.71;96.69;99937.90;129493;1264;115396;-59
2023/11/21 13:07:46;;;;;;;21.90;16.20;;;;;;;4.68;96.77;99938.88;129259;1282;128324;-59
2023/11/21 13:10:54;;;;;;;24.80;16.30;;;;;;;4.67;96.87;99941.59;129478;1264;115231;-59
2023/11/21 13:13:56;;;;;;;23.00;15.10;;;;;;;4.62;96.95;99950.05;129327;1265;114897;-60
2023/11/21 13:16:58;;;;;;;18.00;14.50;;;;;;;4.59;97.04;99954.38;129425;1264;114711;-59
2023/11/21 13:20:05;;;;;;;22.40;15.30;;;;;;;4.55;96.91;99961.20;129359;1282;114790;-60
2023/11/21 13:23:08;;;;;;;22.20;16.70;;;;;;;4.51;97.13;99965.41;129134;1267;128406;-60
2023/11/21 13:26:12;;;;;;;22.80;17.60;;;;;;;4.48;97.27;99968.13;129204;1268;114701;-59
2023/11/21 13:29:16;;;;;;;22.60;15.40;;;;;;;4.45;97.09;99973.02;129449;1282;114703;-59
2023/11/21 13:32:20;;;;;;;21.50;17.40;;;;;;;4.38;97.18;99974.27;129602;1260;114898;-59
2023/11/21 13:35:32;;;;;;;21.80;14.00;;;;;;;4.31;97.13;99978.20;129274;1259;114818;-59
2023/11/21 13:38:35;;;;;;;24.00;16.40;;;;;;;4.23;97.33;99980.69;129420;1277;128935;-59
2023/11/21 13:41:38;;;;;;;20.30;16.30;;;;;;;4.20;97.17;99988.05;129489;1282;114721;-60
2023/11/21 13:44:43;;;;;;;21.50;16.40;;;;;;;4.13;96.99;99996.55;129497;1263;115148;-59
2023/11/21 13:47:46;;;;;;;17.50;14.00;;;;;;;4.08;97.02;100000.73;129419;1275;114794;-59
2023/11/21 13:54:09;;;;;;;15.70;11.80;;;;;;;3.91;96.91;100010.05;129150;1268;128266;-59
2023/11/21 13:57:11;;;;;;;16.70;13.30;;;;;;;3.84;97.07;100013.77;129468;1260;114810;-59
2023/11/21 14:00:40;;;;;;;18.50;12.90;;;;;;;3.76;97.17;100016.63;129376;1265;114703;-59
2023/11/21 14:03:39;;;;;;;20.90;16.10;;;;;;;3.69;97.25;100024.22;129170;1283;115388;-59
2023/11/21 14:06:49;;;;;;;21.60;16.90;;;;;;;3.61;97.23;100028.83;129311;1265;114772;-58
2023/11/21 14:09:52;;;;;;;20.90;16.30;;;;;;;3.55;97.19;100036.04;129443;1283;128119;-59
2023/11/21 14:12:54;;;;;;;20.50;15.90;;;;;;;3.49;97.30;100042.38;129449;1260;114823;-58
2023/11/21 14:16:00;;;;;;;19.70;15.30;;;;;;;3.43;97.32;100049.75;129436;1265;114760;-58